sensor_id;sensor_type;location;lat;lon;timestamp;temperature;humidity
9977;DHT22;5029;47.378;11.776;2022-08-23T00:00:32;13.30;99.90
9977;DHT22;5029;47.378;11.776;2022-08-23T00:05:36;13.90;99.90
9977;DHT22;5029;47.378;11.776;2022-08-23T00:10:39;14.00;99.90
9977;DHT22;5029;47.378;11.776;2022-08-23T00:15:44;13.90;99.90
9977;DHT22;5029;47.378;11.776;2022-08-23T00:20:48;13.30;99.90
9977;DHT22;5029;47.378;11.776;2022-08-23T00:25:52;13.10;99.90
9977;DHT22;5029;47.378;11.776;2022-08-23T00:30:57;13.50;99.90
9977;DHT22;5029;47.378;11.776;2022-08-23T00:36:01;13.40;99.90
9977;DHT22;5029;47.378;11.776;2022-08-23T00:41:05;12.90;99.90
9977;DHT22;5029;47.378;11.776;2022-08-23T00:46:16;12.80;99.90
9977;DHT22;5029;47.378;11.776;2022-08-23T00:51:46;13.50;99.90
9977;DHT22;5029;47.378;11.776;2022-08-23T00:56:55;13.60;99.90
9977;DHT22;5029;47.378;11.776;2022-08-23T01:02:01;13.50;99.90
9977;DHT22;5029;47.378;11.776;2022-08-23T01:07:11;13.30;99.90
9977;DHT22;5029;47.378;11.776;2022-08-23T01:12:21;12.60;99.90
9977;DHT22;5029;47.378;11.776;2022-08-23T01:17:39;13.20;99.90
9977;DHT22;5029;47.378;11.776;2022-08-23T01:22:48;13.10;99.90
9977;DHT22;5029;47.378;11.776;2022-08-23T01:27:55;13.30;99.90
9977;DHT22;5029;47.378;11.776;2022-08-23T01:33:02;12.80;99.90
9977;DHT22;5029;47.378;11.776;2022-08-23T01:38:07;12.70;99.90
9977;DHT22;5029;47.378;11.776;2022-08-23T01:43:13;12.50;99.90
9977;DHT22;5029;47.378;11.776;2022-08-23T01:48:17;12.20;99.90
9977;DHT22;5029;47.378;11.776;2022-08-23T01:53:21;12.10;99.90
9977;DHT22;5029;47.378;11.776;2022-08-23T01:58:26;12.00;99.90
9977;DHT22;5029;47.378;11.776;2022-08-23T02:03:31;12.50;99.90
9977;DHT22;5029;47.378;11.776;2022-08-23T02:08:35;12.30;99.90
9977;DHT22;5029;47.378;11.776;2022-08-23T02:14:02;12.40;99.90
9977;DHT22;5029;47.378;11.776;2022-08-23T02:19:08;12.30;99.90
9977;DHT22;5029;47.378;11.776;2022-08-23T02:24:14;12.60;99.90
9977;DHT22;5029;47.378;11.776;2022-08-23T02:29:20;12.20;99.90
9977;DHT22;5029;47.378;11.776;2022-08-23T02:34:24;11.90;99.90
9977;DHT22;5029;47.378;11.776;2022-08-23T02:39:38;12.00;99.90
9977;DHT22;5029;47.378;11.776;2022-08-23T02:44:43;11.90;99.90
9977;DHT22;5029;47.378;11.776;2022-08-23T02:49:47;11.70;99.90
9977;DHT22;5029;47.378;11.776;2022-08-23T02:54:52;11.70;99.90
9977;DHT22;5029;47.378;11.776;2022-08-23T03:00:00;11.80;99.90
9977;DHT22;5029;47.378;11.776;2022-08-23T03:05:05;11.60;99.90
9977;DHT22;5029;47.378;11.776;2022-08-23T03:10:10;11.00;99.90
9977;DHT22;5029;47.378;11.776;2022-08-23T03:15:15;11.10;99.90
9977;DHT22;5029;47.378;11.776;2022-08-23T03:20:19;10.90;99.90
9977;DHT22;5029;47.378;11.776;2022-08-23T03:25:24;11.20;99.90
9977;DHT22;5029;47.378;11.776;2022-08-23T03:30:29;11.20;99.90
9977;DHT22;5029;47.378;11.776;2022-08-23T03:35:34;10.80;99.90
9977;DHT22;5029;47.378;11.776;2022-08-23T03:40:38;10.60;99.90
9977;DHT22;5029;47.378;11.776;2022-08-23T03:45:44;11.00;99.90
9977;DHT22;5029;47.378;11.776;2022-08-23T03:50:48;11.30;99.90
9977;DHT22;5029;47.378;11.776;2022-08-23T03:55:55;11.00;99.90
9977;DHT22;5029;47.378;11.776;2022-08-23T04:01:00;10.80;99.90
9977;DHT22;5029;47.378;11.776;2022-08-23T04:06:04;10.80;99.90
9977;DHT22;5029;47.378;11.776;2022-08-23T04:11:08;10.80;99.90
9977;DHT22;5029;47.378;11.776;2022-08-23T04:16:13;11.10;99.90
9977;DHT22;5029;47.378;11.776;2022-08-23T04:21:21;11.30;99.90
9977;DHT22;5029;47.378;11.776;2022-08-23T04:26:25;11.40;99.90
9977;DHT22;5029;47.378;11.776;2022-08-23T04:31:32;11.60;99.90
9977;DHT22;5029;47.378;11.776;2022-08-23T04:36:41;10.80;99.90
9977;DHT22;5029;47.378;11.776;2022-08-23T04:41:52;11.10;99.90
9977;DHT22;5029;47.378;11.776;2022-08-23T04:47:17;11.00;99.90
9977;DHT22;5029;47.378;11.776;2022-08-23T04:52:21;10.60;99.90
9977;DHT22;5029;47.378;11.776;2022-08-23T04:57:24;10.70;99.90
9977;DHT22;5029;47.378;11.776;2022-08-23T05:02:30;10.80;99.90
9977;DHT22;5029;47.378;11.776;2022-08-23T05:07:33;10.80;99.90
9977;DHT22;5029;47.378;11.776;2022-08-23T05:12:44;10.80;99.90
9977;DHT22;5029;47.378;11.776;2022-08-23T05:17:49;10.80;99.90
9977;DHT22;5029;47.378;11.776;2022-08-23T05:22:53;11.00;99.90
9977;DHT22;5029;47.378;11.776;2022-08-23T05:27:57;11.30;99.90
9977;DHT22;5029;47.378;11.776;2022-08-23T05:33:03;10.70;99.90
9977;DHT22;5029;47.378;11.776;2022-08-23T05:38:07;10.70;99.90
9977;DHT22;5029;47.378;11.776;2022-08-23T05:43:11;10.40;99.90
9977;DHT22;5029;47.378;11.776;2022-08-23T05:48:17;10.70;99.90
9977;DHT22;5029;47.378;11.776;2022-08-23T05:53:21;10.20;99.90
9977;DHT22;5029;47.378;11.776;2022-08-23T05:58:25;10.70;99.90
9977;DHT22;5029;47.378;11.776;2022-08-23T06:03:31;10.80;99.90
9977;DHT22;5029;47.378;11.776;2022-08-23T06:08:35;10.50;99.90
9977;DHT22;5029;47.378;11.776;2022-08-23T06:13:43;11.00;99.90
9977;DHT22;5029;47.378;11.776;2022-08-23T06:18:48;11.00;99.90
9977;DHT22;5029;47.378;11.776;2022-08-23T06:23:52;11.40;99.90
9977;DHT22;5029;47.378;11.776;2022-08-23T06:28:56;11.70;99.90
9977;DHT22;5029;47.378;11.776;2022-08-23T06:34:02;12.00;99.90
9977;DHT22;5029;47.378;11.776;2022-08-23T06:39:08;12.40;99.90
9977;DHT22;5029;47.378;11.776;2022-08-23T06:44:11;12.10;99.90
9977;DHT22;5029;47.378;11.776;2022-08-23T06:49:16;12.40;99.90
9977;DHT22;5029;47.378;11.776;2022-08-23T06:54:21;11.90;99.90
9977;DHT22;5029;47.378;11.776;2022-08-23T06:59:28;12.60;99.90
9977;DHT22;5029;47.378;11.776;2022-08-23T07:04:36;12.40;99.90
9977;DHT22;5029;47.378;11.776;2022-08-23T07:09:40;13.00;99.90
9977;DHT22;5029;47.378;11.776;2022-08-23T07:14:43;13.20;99.90
9977;DHT22;5029;47.378;11.776;2022-08-23T07:19:48;13.20;99.90
9977;DHT22;5029;47.378;11.776;2022-08-23T07:24:52;13.00;99.90
9977;DHT22;5029;47.378;11.776;2022-08-23T07:29:56;13.50;99.90
9977;DHT22;5029;47.378;11.776;2022-08-23T07:35:01;14.10;99.90
9977;DHT22;5029;47.378;11.776;2022-08-23T07:40:05;14.30;99.90
9977;DHT22;5029;47.378;11.776;2022-08-23T07:45:10;14.50;99.90
9977;DHT22;5029;47.378;11.776;2022-08-23T07:50:15;14.60;99.90
9977;DHT22;5029;47.378;11.776;2022-08-23T07:55:20;14.70;99.90
9977;DHT22;5029;47.378;11.776;2022-08-23T08:00:23;15.30;99.90
9977;DHT22;5029;47.378;11.776;2022-08-23T08:05:30;15.50;99.90
9977;DHT22;5029;47.378;11.776;2022-08-23T08:10:34;16.00;99.90
9977;DHT22;5029;47.378;11.776;2022-08-23T08:15:40;16.20;99.90
9977;DHT22;5029;47.378;11.776;2022-08-23T08:20:45;16.30;99.90
9977;DHT22;5029;47.378;11.776;2022-08-23T08:25:59;16.40;99.90
9977;DHT22;5029;47.378;11.776;2022-08-23T08:31:04;16.40;99.90
9977;DHT22;5029;47.378;11.776;2022-08-23T08:36:27;17.00;99.90
9977;DHT22;5029;47.378;11.776;2022-08-23T08:41:56;16.90;99.90
9977;DHT22;5029;47.378;11.776;2022-08-23T08:47:09;17.40;99.90
9977;DHT22;5029;47.378;11.776;2022-08-23T08:52:19;17.60;99.90
9977;DHT22;5029;47.378;11.776;2022-08-23T08:57:24;17.40;99.90
9977;DHT22;5029;47.378;11.776;2022-08-23T09:02:31;17.90;99.90
9977;DHT22;5029;47.378;11.776;2022-08-23T09:07:45;18.20;99.90
9977;DHT22;5029;47.378;11.776;2022-08-23T09:13:00;18.20;99.90
9977;DHT22;5029;47.378;11.776;2022-08-23T09:18:08;18.20;99.90
9977;DHT22;5029;47.378;11.776;2022-08-23T09:23:16;18.60;99.90
9977;DHT22;5029;47.378;11.776;2022-08-23T09:28:21;18.60;99.90
9977;DHT22;5029;47.378;11.776;2022-08-23T09:33:31;18.70;99.90
9977;DHT22;5029;47.378;11.776;2022-08-23T09:38:49;19.10;99.90
9977;DHT22;5029;47.378;11.776;2022-08-23T09:43:53;19.20;99.90
9977;DHT22;5029;47.378;11.776;2022-08-23T09:49:21;19.40;99.90
9977;DHT22;5029;47.378;11.776;2022-08-23T09:54:29;19.80;99.90
9977;DHT22;5029;47.378;11.776;2022-08-23T09:59:37;20.00;99.90
9977;DHT22;5029;47.378;11.776;2022-08-23T10:04:44;20.30;99.90
9977;DHT22;5029;47.378;11.776;2022-08-23T10:09:50;20.20;99.90
9977;DHT22;5029;47.378;11.776;2022-08-23T10:14:53;20.50;99.90
9977;DHT22;5029;47.378;11.776;2022-08-23T10:20:05;20.80;99.90
9977;DHT22;5029;47.378;11.776;2022-08-23T10:25:21;20.40;1.00
9977;DHT22;5029;47.378;11.776;2022-08-23T10:30:38;20.20;1.00
9977;DHT22;5029;47.378;11.776;2022-08-23T10:35:48;20.10;1.00
9977;DHT22;5029;47.378;11.776;2022-08-23T10:41:02;20.30;1.00
9977;DHT22;5029;47.378;11.776;2022-08-23T10:46:09;21.00;1.00
9977;DHT22;5029;47.378;11.776;2022-08-23T10:51:17;20.80;1.00
9977;DHT22;5029;47.378;11.776;2022-08-23T10:56:35;20.80;1.00
9977;DHT22;5029;47.378;11.776;2022-08-23T11:01:54;20.80;1.00
9977;DHT22;5029;47.378;11.776;2022-08-23T11:07:00;21.10;1.00
9977;DHT22;5029;47.378;11.776;2022-08-23T11:12:28;21.40;1.00
9977;DHT22;5029;47.378;11.776;2022-08-23T11:17:40;20.90;1.00
9977;DHT22;5029;47.378;11.776;2022-08-23T11:23:10;21.10;1.00
9977;DHT22;5029;47.378;11.776;2022-08-23T11:28:38;21.30;1.00
9977;DHT22;5029;47.378;11.776;2022-08-23T11:33:44;21.50;1.00
9977;DHT22;5029;47.378;11.776;2022-08-23T11:39:07;21.60;1.00
9977;DHT22;5029;47.378;11.776;2022-08-23T11:44:23;22.10;1.00
9977;DHT22;5029;47.378;11.776;2022-08-23T11:49:49;22.40;1.00
9977;DHT22;5029;47.378;11.776;2022-08-23T12:00:50;22.10;1.00
9977;DHT22;5029;47.378;11.776;2022-08-23T12:06:35;22.30;99.90
9977;DHT22;5029;47.378;11.776;2022-08-23T12:18:08;22.40;99.90
9977;DHT22;5029;47.378;11.776;2022-08-23T12:23:19;22.60;99.90
9977;DHT22;5029;47.378;11.776;2022-08-23T12:28:35;22.90;99.90
9977;DHT22;5029;47.378;11.776;2022-08-23T12:33:50;22.90;99.90
9977;DHT22;5029;47.378;11.776;2022-08-23T12:39:00;23.00;1.00
9977;DHT22;5029;47.378;11.776;2022-08-23T12:44:08;23.40;99.90
9977;DHT22;5029;47.378;11.776;2022-08-23T12:49:25;23.20;99.90
9977;DHT22;5029;47.378;11.776;2022-08-23T12:54:35;23.20;99.90
9977;DHT22;5029;47.378;11.776;2022-08-23T12:59:43;23.30;99.90
9977;DHT22;5029;47.378;11.776;2022-08-23T13:04:56;23.60;99.90
9977;DHT22;5029;47.378;11.776;2022-08-23T13:10:01;23.70;99.90
9977;DHT22;5029;47.378;11.776;2022-08-23T13:15:05;23.40;99.90
9977;DHT22;5029;47.378;11.776;2022-08-23T13:20:20;23.60;99.90
9977;DHT22;5029;47.378;11.776;2022-08-23T13:25:26;23.90;99.90
9977;DHT22;5029;47.378;11.776;2022-08-23T13:30:35;23.90;99.90
9977;DHT22;5029;47.378;11.776;2022-08-23T13:35:43;24.00;99.90
9977;DHT22;5029;47.378;11.776;2022-08-23T13:41:00;24.20;99.90
9977;DHT22;5029;47.378;11.776;2022-08-23T13:46:14;24.00;99.90
9977;DHT22;5029;47.378;11.776;2022-08-23T13:51:28;24.20;99.90
9977;DHT22;5029;47.378;11.776;2022-08-23T13:56:36;24.40;99.90
9977;DHT22;5029;47.378;11.776;2022-08-23T14:01:40;24.40;99.90
9977;DHT22;5029;47.378;11.776;2022-08-23T14:06:45;24.30;99.90
9977;DHT22;5029;47.378;11.776;2022-08-23T14:11:54;24.60;99.90
9977;DHT22;5029;47.378;11.776;2022-08-23T14:17:00;24.50;99.90
9977;DHT22;5029;47.378;11.776;2022-08-23T14:22:05;24.90;99.90
9977;DHT22;5029;47.378;11.776;2022-08-23T14:27:10;24.80;99.90
9977;DHT22;5029;47.378;11.776;2022-08-23T14:32:13;24.80;99.90
9977;DHT22;5029;47.378;11.776;2022-08-23T14:37:18;25.20;99.90
9977;DHT22;5029;47.378;11.776;2022-08-23T14:42:42;24.90;99.90
9977;DHT22;5029;47.378;11.776;2022-08-23T14:47:46;25.30;99.90
9977;DHT22;5029;47.378;11.776;2022-08-23T14:52:51;24.80;99.90
9977;DHT22;5029;47.378;11.776;2022-08-23T14:57:55;26.00;99.90
9977;DHT22;5029;47.378;11.776;2022-08-23T15:02:58;25.60;99.90
9977;DHT22;5029;47.378;11.776;2022-08-23T15:08:06;25.50;99.90
9977;DHT22;5029;47.378;11.776;2022-08-23T15:13:09;25.90;99.90
9977;DHT22;5029;47.378;11.776;2022-08-23T15:18:28;25.40;99.90
9977;DHT22;5029;47.378;11.776;2022-08-23T15:23:34;25.20;99.90
9977;DHT22;5029;47.378;11.776;2022-08-23T15:28:37;25.20;99.90
9977;DHT22;5029;47.378;11.776;2022-08-23T15:33:41;25.00;99.90
9977;DHT22;5029;47.378;11.776;2022-08-23T15:38:47;25.10;99.90
9977;DHT22;5029;47.378;11.776;2022-08-23T15:43:51;25.70;99.90
9977;DHT22;5029;47.378;11.776;2022-08-23T15:48:57;25.20;99.90
9977;DHT22;5029;47.378;11.776;2022-08-23T15:54:04;24.60;99.90
9977;DHT22;5029;47.378;11.776;2022-08-23T15:59:10;24.20;99.90
9977;DHT22;5029;47.378;11.776;2022-08-23T16:04:14;24.30;99.90
9977;DHT22;5029;47.378;11.776;2022-08-23T16:09:22;24.20;99.90
9977;DHT22;5029;47.378;11.776;2022-08-23T16:14:26;24.30;99.90
9977;DHT22;5029;47.378;11.776;2022-08-23T16:19:32;23.70;99.90
9977;DHT22;5029;47.378;11.776;2022-08-23T16:24:37;23.80;99.90
9977;DHT22;5029;47.378;11.776;2022-08-23T16:29:40;24.30;99.90
9977;DHT22;5029;47.378;11.776;2022-08-23T16:34:44;24.60;99.90
9977;DHT22;5029;47.378;11.776;2022-08-23T16:39:49;23.60;99.90
9977;DHT22;5029;47.378;11.776;2022-08-23T16:44:53;23.20;99.90
9977;DHT22;5029;47.378;11.776;2022-08-23T16:50:56;23.40;99.90
9977;DHT22;5029;47.378;11.776;2022-08-23T16:55:57;23.40;99.90
9977;DHT22;5029;47.378;11.776;2022-08-23T17:01:01;23.20;99.90
9977;DHT22;5029;47.378;11.776;2022-08-23T17:06:05;22.40;99.90
9977;DHT22;5029;47.378;11.776;2022-08-23T17:11:13;22.50;99.90
9977;DHT22;5029;47.378;11.776;2022-08-23T17:16:17;22.30;99.90
9977;DHT22;5029;47.378;11.776;2022-08-23T17:21:23;22.00;99.90
9977;DHT22;5029;47.378;11.776;2022-08-23T17:26:29;21.50;99.90
9977;DHT22;5029;47.378;11.776;2022-08-23T17:31:33;21.10;99.90
9977;DHT22;5029;47.378;11.776;2022-08-23T17:36:42;20.40;99.90
9977;DHT22;5029;47.378;11.776;2022-08-23T17:41:50;20.10;99.90
9977;DHT22;5029;47.378;11.776;2022-08-23T17:46:54;19.60;99.90
9977;DHT22;5029;47.378;11.776;2022-08-23T17:51:58;19.50;99.90
9977;DHT22;5029;47.378;11.776;2022-08-23T17:57:03;19.20;99.90
9977;DHT22;5029;47.378;11.776;2022-08-23T18:02:07;18.70;99.90
9977;DHT22;5029;47.378;11.776;2022-08-23T18:07:11;18.10;1.00
9977;DHT22;5029;47.378;11.776;2022-08-23T18:12:16;18.40;99.90
9977;DHT22;5029;47.378;11.776;2022-08-23T18:17:19;18.20;99.90
9977;DHT22;5029;47.378;11.776;2022-08-23T18:22:23;18.10;99.90
9977;DHT22;5029;47.378;11.776;2022-08-23T18:27:28;17.90;99.90
9977;DHT22;5029;47.378;11.776;2022-08-23T18:32:50;18.10;99.90
9977;DHT22;5029;47.378;11.776;2022-08-23T18:37:54;18.60;99.90
9977;DHT22;5029;47.378;11.776;2022-08-23T18:42:59;18.40;99.90
9977;DHT22;5029;47.378;11.776;2022-08-23T18:48:04;18.00;99.90
9977;DHT22;5029;47.378;11.776;2022-08-23T18:53:08;18.00;99.90
9977;DHT22;5029;47.378;11.776;2022-08-23T18:58:15;17.30;99.90
9977;DHT22;5029;47.378;11.776;2022-08-23T19:03:23;17.30;99.90
9977;DHT22;5029;47.378;11.776;2022-08-23T19:08:27;17.50;99.90
9977;DHT22;5029;47.378;11.776;2022-08-23T19:13:33;16.90;99.90
9977;DHT22;5029;47.378;11.776;2022-08-23T19:18:37;17.10;99.90
9977;DHT22;5029;47.378;11.776;2022-08-23T19:23:41;17.00;99.90
9977;DHT22;5029;47.378;11.776;2022-08-23T19:28:47;16.70;99.90
9977;DHT22;5029;47.378;11.776;2022-08-23T19:33:51;17.20;99.90
9977;DHT22;5029;47.378;11.776;2022-08-23T19:38:55;16.50;99.90
9977;DHT22;5029;47.378;11.776;2022-08-23T19:44:01;16.30;99.90
9977;DHT22;5029;47.378;11.776;2022-08-23T19:49:04;16.40;99.90
9977;DHT22;5029;47.378;11.776;2022-08-23T19:54:09;16.40;99.90
9977;DHT22;5029;47.378;11.776;2022-08-23T19:59:16;16.40;99.90
9977;DHT22;5029;47.378;11.776;2022-08-23T20:04:22;16.30;99.90
9977;DHT22;5029;47.378;11.776;2022-08-23T20:09:28;16.00;99.90
9977;DHT22;5029;47.378;11.776;2022-08-23T20:14:34;16.10;99.90
9977;DHT22;5029;47.378;11.776;2022-08-23T20:19:38;16.10;99.90
9977;DHT22;5029;47.378;11.776;2022-08-23T20:24:43;15.90;99.90
9977;DHT22;5029;47.378;11.776;2022-08-23T20:29:54;15.80;99.90
9977;DHT22;5029;47.378;11.776;2022-08-23T20:35:00;15.40;99.90
9977;DHT22;5029;47.378;11.776;2022-08-23T20:40:06;15.30;99.90
9977;DHT22;5029;47.378;11.776;2022-08-23T20:45:12;15.00;99.90
9977;DHT22;5029;47.378;11.776;2022-08-23T20:50:16;15.00;99.90
9977;DHT22;5029;47.378;11.776;2022-08-23T20:55:19;15.20;99.90
9977;DHT22;5029;47.378;11.776;2022-08-23T21:00:24;14.80;99.90
9977;DHT22;5029;47.378;11.776;2022-08-23T21:05:28;15.10;99.90
9977;DHT22;5029;47.378;11.776;2022-08-23T21:10:32;15.20;99.90
9977;DHT22;5029;47.378;11.776;2022-08-23T21:15:37;15.10;99.90
9977;DHT22;5029;47.378;11.776;2022-08-23T21:20:40;14.80;99.90
9977;DHT22;5029;47.378;11.776;2022-08-23T21:25:44;14.70;99.90
9977;DHT22;5029;47.378;11.776;2022-08-23T21:30:49;14.60;99.90
9977;DHT22;5029;47.378;11.776;2022-08-23T21:35:53;14.70;99.90
9977;DHT22;5029;47.378;11.776;2022-08-23T21:40:57;14.50;99.90
9977;DHT22;5029;47.378;11.776;2022-08-23T21:46:03;14.20;99.90
9977;DHT22;5029;47.378;11.776;2022-08-23T21:51:08;14.30;99.90
9977;DHT22;5029;47.378;11.776;2022-08-23T21:56:11;14.10;99.90
9977;DHT22;5029;47.378;11.776;2022-08-23T22:01:16;14.00;99.90
9977;DHT22;5029;47.378;11.776;2022-08-23T22:06:20;13.90;99.90
9977;DHT22;5029;47.378;11.776;2022-08-23T22:11:24;13.80;99.90
9977;DHT22;5029;47.378;11.776;2022-08-23T22:16:28;13.80;99.90
9977;DHT22;5029;47.378;11.776;2022-08-23T22:21:32;13.60;99.90
9977;DHT22;5029;47.378;11.776;2022-08-23T22:26:37;13.80;99.90
9977;DHT22;5029;47.378;11.776;2022-08-23T22:31:42;13.80;99.90
9977;DHT22;5029;47.378;11.776;2022-08-23T22:37:14;13.60;99.90
9977;DHT22;5029;47.378;11.776;2022-08-23T22:42:18;13.50;99.90
9977;DHT22;5029;47.378;11.776;2022-08-23T22:47:23;13.70;99.90
9977;DHT22;5029;47.378;11.776;2022-08-23T22:52:26;13.30;99.90
9977;DHT22;5029;47.378;11.776;2022-08-23T22:57:30;13.30;99.90
9977;DHT22;5029;47.378;11.776;2022-08-23T23:02:38;13.40;99.90
9977;DHT22;5029;47.378;11.776;2022-08-23T23:07:41;13.60;99.90
9977;DHT22;5029;47.378;11.776;2022-08-23T23:13:03;13.90;99.90
9977;DHT22;5029;47.378;11.776;2022-08-23T23:18:08;13.60;99.90
9977;DHT22;5029;47.378;11.776;2022-08-23T23:23:13;13.60;99.90
9977;DHT22;5029;47.378;11.776;2022-08-23T23:28:18;13.90;99.90
9977;DHT22;5029;47.378;11.776;2022-08-23T23:33:23;13.60;99.90
9977;DHT22;5029;47.378;11.776;2022-08-23T23:38:28;13.60;99.90
9977;DHT22;5029;47.378;11.776;2022-08-23T23:43:33;13.70;99.90
9977;DHT22;5029;47.378;11.776;2022-08-23T23:48:38;13.40;99.90
9977;DHT22;5029;47.378;11.776;2022-08-23T23:53:43;13.60;99.90
9977;DHT22;5029;47.378;11.776;2022-08-23T23:58:49;13.10;99.90
